createdAt,value
2023-02-02T00:01:58.760Z,8.00
2023-02-02T00:04:28.488Z,8.00
2023-02-02T00:06:57.436Z,8.00
2023-02-02T00:09:28.841Z,8.10
2023-02-02T00:11:57.439Z,8.00
2023-02-02T00:14:25.737Z,8.00
2023-02-02T00:16:56.151Z,7.90
2023-02-02T00:19:26.247Z,8.00
2023-02-02T00:21:54.802Z,8.00
2023-02-02T00:24:23.303Z,8.00
2023-02-02T00:26:52.888Z,8.00
2023-02-02T00:29:22.966Z,8.00
2023-02-02T00:31:51.421Z,8.00
2023-02-02T00:34:21.254Z,8.00
2023-02-02T00:36:50.016Z,8.00
2023-02-02T00:39:19.555Z,8.00
2023-02-02T00:41:47.896Z,8.00
2023-02-02T00:44:33.589Z,8.00
2023-02-02T00:47:02.277Z,7.90
2023-02-02T00:49:31.469Z,8.00
2023-02-02T00:52:00.234Z,7.90
2023-02-02T00:54:28.082Z,8.00
2023-02-02T00:56:55.928Z,7.90
2023-02-02T00:59:23.632Z,7.90
2023-02-02T05:01:27.314Z,8.00
2023-02-02T05:03:55.484Z,7.90
2023-02-02T05:06:23.227Z,7.90
2023-02-02T05:08:51.163Z,7.80
2023-02-02T05:11:21.674Z,7.80
2023-02-02T05:13:50.911Z,7.80
2023-02-02T05:16:18.873Z,7.80
2023-02-02T05:18:51.816Z,7.80
2023-02-02T05:21:20.137Z,7.80
2023-02-02T05:23:48.402Z,7.90
2023-02-02T05:26:18.868Z,7.90
2023-02-02T05:28:46.743Z,7.80
2023-02-02T05:31:14.516Z,7.80
2023-02-02T05:33:42.344Z,7.80
2023-02-02T05:36:11.882Z,7.80
2023-02-02T05:38:39.899Z,7.80
2023-02-02T05:41:07.666Z,7.80
2023-02-02T05:43:35.673Z,7.80
2023-02-02T05:46:03.520Z,7.80
2023-02-02T05:48:31.304Z,7.80
2023-02-02T05:51:04.363Z,7.80
2023-02-02T05:53:34.657Z,7.80
2023-02-02T05:56:02.502Z,7.80
2023-02-02T05:58:30.266Z,7.80
2023-02-02T06:00:58.047Z,7.70
2023-02-02T06:03:25.963Z,7.80
2023-02-02T06:05:53.814Z,7.80
2023-02-02T06:08:21.559Z,7.80
2023-02-02T06:10:50.713Z,7.80
2023-02-02T06:13:18.455Z,7.80
2023-02-02T06:15:46.286Z,7.80
2023-02-02T06:18:14.132Z,7.80
2023-02-02T06:20:41.954Z,7.80
2023-02-02T06:23:09.725Z,7.80
2023-02-02T06:25:37.481Z,7.80
2023-02-02T06:28:07.712Z,7.80
2023-02-02T06:30:35.431Z,7.70
2023-02-02T06:33:03.230Z,7.70
2023-02-02T06:35:30.942Z,7.70
2023-02-02T06:37:59.590Z,7.70
2023-02-02T06:40:30.320Z,7.70
2023-02-02T06:42:58.608Z,7.70
2023-02-02T06:45:29.140Z,7.70
2023-02-02T06:48:00.718Z,7.70
2023-02-02T06:52:56.733Z,7.70
2023-02-02T06:55:24.794Z,7.70
2023-02-02T07:05:24.196Z,7.70
2023-02-02T07:07:52.394Z,7.80
2023-02-02T07:11:11.794Z,7.80
2023-02-02T07:13:08.653Z,7.80
2023-02-02T07:15:39.398Z,7.80
2023-02-02T07:18:08.939Z,7.90
2023-02-02T07:20:36.753Z,7.90
2023-02-02T07:23:04.765Z,8.50
2023-02-02T07:25:32.538Z,8.00
2023-02-02T07:28:00.474Z,8.00
2023-02-02T07:30:29.963Z,8.00
2023-02-02T07:32:57.931Z,8.00
2023-02-02T07:35:27.131Z,8.00
2023-02-02T07:37:55.653Z,8.00
2023-02-02T07:40:23.541Z,8.00
2023-02-02T07:42:51.314Z,8.00
2023-02-02T07:45:27.750Z,8.00
2023-02-02T07:47:59.334Z,8.10
2023-02-02T07:52:57.452Z,8.10
2023-02-02T07:55:25.331Z,8.10
2023-02-02T07:57:55.279Z,8.10
2023-02-02T08:00:24.823Z,8.10
2023-02-02T08:02:53.202Z,8.10
2023-02-02T08:05:22.784Z,8.10
2023-02-02T08:07:52.430Z,8.00
2023-02-02T08:10:20.443Z,8.00
2023-02-02T08:12:48.165Z,8.00
2023-02-02T08:15:16.157Z,8.00
2023-02-02T08:20:42.196Z,8.10
2023-02-02T08:23:15.622Z,8.00
2023-02-02T08:25:43.465Z,8.10
2023-02-02T08:28:11.230Z,8.10
2023-02-02T08:30:39.000Z,8.20
2023-02-02T08:33:06.891Z,8.10
2023-02-02T08:35:34.784Z,8.20
2023-02-02T08:38:05.296Z,8.20
2023-02-02T08:40:34.464Z,8.20
2023-02-02T08:43:03.610Z,8.20
2023-02-02T08:46:02.745Z,8.20
2023-02-02T08:48:21.537Z,8.10
2023-02-02T08:50:54.681Z,8.20
2023-02-02T08:53:23.490Z,8.20
2023-02-02T08:55:58.918Z,8.20
2023-02-02T08:58:26.866Z,8.20
2023-02-02T09:00:54.966Z,8.30
2023-02-02T09:03:22.805Z,8.30
2023-02-02T09:05:50.706Z,8.30
2023-02-02T09:08:18.589Z,8.30
2023-02-02T09:10:46.404Z,8.30
2023-02-02T09:13:15.509Z,8.30
2023-02-02T09:15:43.453Z,8.30
2023-02-02T09:18:11.261Z,8.30
2023-02-02T09:20:39.087Z,8.40
2023-02-02T09:23:06.884Z,8.40
2023-02-02T09:25:34.900Z,8.40
2023-02-02T09:28:02.675Z,8.40
2023-02-02T09:30:31.755Z,8.40
2023-02-02T09:32:59.536Z,8.40
2023-02-02T09:35:27.637Z,8.40
2023-02-02T09:37:55.622Z,8.40
2023-02-02T09:40:27.790Z,8.40
2023-02-02T09:43:08.088Z,8.40
2023-02-02T09:45:44.447Z,8.40
2023-02-02T09:48:23.510Z,8.40
2023-02-02T09:50:56.280Z,8.40
2023-02-02T09:53:30.902Z,8.40
2023-02-02T09:56:01.516Z,8.50
2023-02-02T09:58:34.803Z,8.50
2023-02-02T10:01:08.398Z,8.50
2023-02-02T10:03:41.620Z,8.50
2023-02-02T10:06:22.377Z,8.50
2023-02-02T10:08:53.822Z,8.50
2023-02-02T10:11:31.881Z,8.50
2023-02-02T10:14:04.066Z,8.50
2023-02-02T10:16:36.105Z,9.10
2023-02-02T10:19:07.088Z,8.50
2023-02-02T10:21:41.720Z,8.50
2023-02-02T10:24:18.732Z,8.60
2023-02-02T10:26:49.492Z,8.50
2023-02-02T10:29:19.962Z,8.60
2023-02-02T10:32:03.885Z,8.60
2023-02-02T10:34:39.778Z,8.60
2023-02-02T10:37:22.388Z,8.60
2023-02-02T10:40:06.011Z,8.60
2023-02-02T10:42:45.391Z,8.60
2023-02-02T10:45:18.011Z,8.60
2023-02-02T10:47:47.598Z,8.60
2023-02-02T10:50:20.248Z,8.60
2023-02-02T10:52:53.040Z,8.60
2023-02-02T10:55:29.487Z,8.70
2023-02-02T10:58:12.420Z,8.70
2023-02-02T11:00:46.622Z,8.70
2023-02-02T11:03:19.683Z,8.70
2023-02-02T11:06:05.882Z,8.80
2023-02-02T11:08:36.586Z,8.80
2023-02-02T11:11:12.947Z,8.90
2023-02-02T11:13:45.191Z,8.90
2023-02-02T11:16:32.600Z,8.80
2023-02-02T11:19:24.209Z,8.80
2023-02-02T11:21:54.225Z,8.80
2023-02-02T11:24:25.695Z,8.80
2023-02-02T11:26:57.752Z,8.80
2023-02-02T11:29:30.277Z,8.70
2023-02-02T11:31:58.374Z,8.70
2023-02-02T11:34:30.202Z,8.70
2023-02-02T11:37:04.148Z,8.70
2023-02-02T11:39:32.226Z,8.70
2023-02-02T11:42:02.329Z,8.60
2023-02-02T11:44:32.295Z,8.60
2023-02-02T11:47:01.566Z,8.70
2023-02-02T11:49:33.137Z,8.80
2023-02-02T11:52:04.395Z,8.70
2023-02-02T11:54:34.493Z,8.70
2023-02-02T11:57:04.073Z,8.60
2023-02-02T11:59:35.891Z,8.60
2023-02-02T12:02:24.961Z,8.60
2023-02-02T12:04:55.774Z,8.60
2023-02-02T12:07:27.798Z,8.70
2023-02-02T12:10:00.357Z,8.70
2023-02-02T12:12:44.397Z,8.80
2023-02-02T12:15:25.775Z,8.70
2023-02-02T12:18:01.803Z,8.80
2023-02-02T12:20:41.894Z,8.90
2023-02-02T12:23:27.093Z,8.90
2023-02-02T12:26:06.456Z,8.90
2023-02-02T12:28:50.183Z,9.00
2023-02-02T12:31:26.469Z,9.10
2023-02-02T12:34:02.788Z,9.10
2023-02-02T12:36:48.455Z,9.10
2023-02-02T12:39:28.079Z,9.20
2023-02-02T12:42:22.463Z,9.20
2023-02-02T12:45:06.595Z,9.10
2023-02-02T12:47:41.061Z,9.10
2023-02-02T12:50:25.720Z,9.00
2023-02-02T12:53:23.812Z,9.00
2023-02-02T12:56:01.203Z,9.00
2023-02-02T12:58:35.920Z,9.10
2023-02-02T13:01:19.375Z,9.20
2023-02-02T13:04:24.315Z,9.20
2023-02-02T13:07:18.061Z,9.30
2023-02-02T13:09:59.550Z,9.20
2023-02-02T13:12:29.271Z,9.30
2023-02-02T13:15:00.333Z,9.40
2023-02-02T13:17:34.640Z,9.30
2023-02-02T13:20:06.488Z,9.30
2023-02-02T13:22:38.456Z,9.30
2023-02-02T13:25:14.475Z,9.30
2023-02-02T13:27:43.464Z,9.30
2023-02-02T13:30:18.619Z,9.30
2023-02-02T13:32:48.001Z,9.40
2023-02-02T13:35:19.886Z,9.40
2023-02-02T13:37:54.025Z,9.40
2023-02-02T13:40:29.336Z,9.40
2023-02-02T13:43:06.834Z,9.40
2023-02-02T13:45:42.568Z,9.40
2023-02-02T13:48:20.211Z,9.40
2023-02-02T13:51:05.949Z,9.40
2023-02-02T13:53:52.089Z,9.50
2023-02-02T13:56:39.626Z,9.50
2023-02-02T13:59:31.697Z,9.40
2023-02-02T14:02:00.199Z,9.40
2023-02-02T14:04:30.488Z,9.40
2023-02-02T14:07:06.972Z,9.50
2023-02-02T14:09:38.595Z,9.50
2023-02-02T14:12:10.634Z,9.50
2023-02-02T14:14:40.155Z,9.50
2023-02-02T14:17:28.834Z,9.60
2023-02-02T14:19:57.867Z,9.60
2023-02-02T14:22:45.539Z,9.60
2023-02-02T14:26:04.739Z,9.70
2023-02-02T14:28:48.073Z,9.70
2023-02-02T14:31:53.323Z,9.70
2023-02-02T14:34:35.629Z,9.80
2023-02-02T14:37:29.584Z,9.80
2023-02-02T14:40:04.264Z,9.80
2023-02-02T14:43:03.525Z,9.90
2023-02-02T14:45:34.312Z,9.90
2023-02-02T14:48:03.861Z,9.90
2023-02-02T14:50:44.965Z,9.90
2023-02-02T14:53:24.062Z,9.90
2023-02-02T14:55:56.672Z,9.90
2023-02-02T14:58:28.088Z,11.60
2023-02-02T15:01:04.947Z,9.80
2023-02-02T15:03:46.880Z,9.90
2023-02-02T15:06:27.510Z,9.80
2023-02-02T15:09:36.855Z,9.80
2023-02-02T15:12:35.241Z,9.60
2023-02-02T15:15:21.360Z,9.60
2023-02-02T15:18:07.605Z,9.50
2023-02-02T15:20:42.842Z,9.60
2023-02-02T15:23:24.242Z,9.50
2023-02-02T15:25:55.488Z,9.60
2023-02-02T15:28:30.370Z,9.60
2023-02-02T15:31:03.695Z,9.50
2023-02-02T15:33:37.197Z,9.60
2023-02-02T15:36:10.858Z,9.60
2023-02-02T15:38:40.735Z,9.60
2023-02-02T15:41:17.447Z,9.60
2023-02-02T15:43:45.640Z,9.60
2023-02-02T15:46:24.016Z,9.60
2023-02-02T15:49:33.864Z,9.60
2023-02-02T15:52:11.070Z,9.60
2023-02-02T15:54:39.153Z,9.60
2023-02-02T15:57:24.959Z,9.60
2023-02-02T15:59:52.799Z,9.70
2023-02-02T16:02:26.877Z,9.70
2023-02-02T16:04:56.363Z,9.70
2023-02-02T16:07:29.659Z,9.70
2023-02-02T16:09:57.915Z,9.70
2023-02-02T16:12:26.089Z,9.80
2023-02-02T16:14:56.173Z,9.80
2023-02-02T16:17:27.912Z,9.80
2023-02-02T16:20:03.926Z,9.80
2023-02-02T16:22:33.293Z,9.80
2023-02-02T16:25:06.962Z,9.60
2023-02-02T16:27:35.861Z,9.70
2023-02-02T16:30:08.097Z,9.60
2023-02-02T16:32:38.853Z,9.60
2023-02-02T16:35:31.246Z,9.60
2023-02-02T16:38:14.562Z,9.60
2023-02-02T16:40:42.641Z,9.50
2023-02-02T16:43:18.601Z,9.50
2023-02-02T16:45:49.699Z,9.50
2023-02-02T16:48:33.654Z,9.50
2023-02-02T16:51:22.437Z,9.50
2023-02-02T16:53:59.128Z,9.50
2023-02-02T16:56:31.674Z,9.50
2023-02-02T16:59:02.296Z,9.50
2023-02-02T17:01:37.372Z,9.50
2023-02-02T17:04:08.971Z,9.50
2023-02-02T17:06:51.986Z,9.50
2023-02-02T17:09:34.308Z,9.50
2023-02-02T17:12:09.311Z,9.50
2023-02-02T17:14:52.382Z,9.50
2023-02-02T17:17:20.355Z,9.50
2023-02-02T17:19:48.675Z,9.60
2023-02-02T17:22:20.515Z,9.60
2023-02-02T17:24:50.815Z,9.60
2023-02-02T17:27:22.283Z,9.60
2023-02-02T17:29:50.251Z,9.60
2023-02-02T17:32:17.977Z,9.60
2023-02-02T17:34:46.266Z,9.60
2023-02-02T17:37:14.111Z,9.60
2023-02-02T17:39:43.426Z,9.60
2023-02-02T17:42:27.273Z,9.60
2023-02-02T17:44:55.311Z,11.10
2023-02-02T17:47:23.090Z,9.60
2023-02-02T17:49:50.902Z,9.60
2023-02-02T17:52:18.709Z,9.60
2023-02-02T17:54:47.779Z,9.60
2023-02-02T17:57:16.439Z,9.60
2023-02-02T18:02:16.145Z,9.50
2023-02-02T18:04:45.602Z,9.50
2023-02-02T18:07:13.560Z,9.50
2023-02-02T18:09:41.680Z,9.50
2023-02-02T18:12:10.939Z,9.50
2023-02-02T18:14:39.262Z,9.50
2023-02-02T18:17:08.214Z,9.40
2023-02-02T18:19:36.026Z,9.40
2023-02-02T18:22:03.892Z,9.40
2023-02-02T18:24:31.702Z,9.40
2023-02-02T18:26:59.641Z,9.30
2023-02-02T18:29:28.899Z,9.30
2023-02-02T18:31:58.536Z,9.30
2023-02-02T18:34:29.734Z,9.40
2023-02-02T18:36:57.520Z,9.40
2023-02-02T18:39:25.687Z,9.40
2023-02-02T18:41:53.623Z,9.30
2023-02-02T18:44:22.316Z,9.20
2023-02-02T18:46:51.599Z,9.20
2023-02-02T18:49:19.925Z,9.20
2023-02-02T18:51:47.811Z,9.20
2023-02-02T18:54:15.686Z,9.20
2023-02-02T18:56:43.484Z,9.20
2023-02-02T19:01:39.487Z,9.20
2023-02-02T19:04:09.028Z,9.20
2023-02-02T19:06:54.791Z,9.20
2023-02-02T19:09:22.855Z,9.20
2023-02-02T19:11:54.743Z,9.20
2023-02-02T19:14:26.514Z,9.20
2023-02-02T19:16:57.121Z,9.20
2023-02-02T19:19:29.157Z,9.10
2023-02-02T19:21:59.078Z,9.20
2023-02-02T19:24:27.784Z,9.20
2023-02-02T19:26:55.953Z,9.20
2023-02-02T19:29:25.808Z,9.20
2023-02-02T19:31:57.311Z,9.20
2023-02-02T19:34:26.533Z,9.10
2023-02-02T19:36:54.377Z,9.10
2023-02-02T19:39:26.971Z,12.00
2023-02-02T19:41:59.312Z,9.00
2023-02-02T19:44:31.423Z,9.90
2023-02-02T19:46:59.918Z,9.10
2023-02-02T19:49:33.607Z,9.10
2023-02-02T19:52:03.673Z,9.10
2023-02-02T19:54:35.724Z,9.10
2023-02-02T19:57:15.449Z,9.10
2023-02-02T19:59:47.033Z,9.10
2023-02-02T20:02:42.364Z,9.10
2023-02-02T20:05:19.939Z,9.10
2023-02-02T20:07:48.639Z,9.10
2023-02-02T20:10:21.000Z,9.10
2023-02-02T20:12:49.143Z,9.10
2023-02-02T20:15:32.135Z,9.00
2023-02-02T20:18:02.425Z,9.00
2023-02-02T20:20:37.731Z,8.90
2023-02-02T20:23:16.792Z,8.90
2023-02-02T20:25:45.574Z,8.90
2023-02-02T20:28:30.761Z,8.80
2023-02-02T20:30:58.722Z,8.80
2023-02-02T20:33:27.375Z,8.80
2023-02-02T20:35:56.539Z,8.80
2023-02-02T20:38:27.785Z,8.80
2023-02-02T20:40:56.024Z,8.70
2023-02-02T20:43:23.833Z,8.70
2023-02-02T20:45:52.118Z,8.80
2023-02-02T20:48:19.955Z,8.80
2023-02-02T20:50:47.773Z,8.80
2023-02-02T20:53:17.073Z,8.80
2023-02-02T20:55:45.223Z,8.60
2023-02-02T20:58:13.918Z,8.80
2023-02-02T21:00:42.024Z,8.80
2023-02-02T21:03:09.820Z,8.80
2023-02-02T21:05:38.001Z,8.80
2023-02-02T21:08:06.949Z,8.80
2023-02-02T21:10:36.177Z,8.70
2023-02-02T21:13:03.972Z,8.70
2023-02-02T21:15:31.698Z,8.70
2023-02-02T21:17:59.474Z,8.70
2023-02-02T21:20:27.724Z,8.70
2023-02-02T21:22:56.701Z,8.70
2023-02-02T21:25:24.452Z,8.70
2023-02-02T21:27:53.532Z,8.60
2023-02-02T21:30:21.375Z,8.70
2023-02-02T21:32:49.223Z,8.70
2023-02-02T21:35:17.143Z,8.80
2023-02-02T21:37:46.735Z,8.70
2023-02-02T21:40:22.447Z,8.80
2023-02-02T21:42:50.624Z,8.70
2023-02-02T21:45:32.489Z,8.70
2023-02-02T21:48:03.160Z,8.70
2023-02-02T21:50:35.026Z,8.70
2023-02-02T21:53:18.122Z,8.70
2023-02-02T21:55:47.480Z,8.80
2023-02-02T21:58:24.851Z,8.80
2023-02-02T22:00:54.891Z,8.70
2023-02-02T22:03:28.057Z,8.70
2023-02-02T22:06:06.363Z,8.70
2023-02-02T22:08:37.150Z,8.80
2023-02-02T22:11:05.958Z,8.80
2023-02-02T22:13:35.778Z,8.80
2023-02-02T22:16:06.864Z,8.70
2023-02-02T22:18:36.973Z,8.80
2023-02-02T22:21:07.530Z,8.80
2023-02-02T22:23:35.328Z,8.80
2023-02-02T22:26:03.222Z,8.80
2023-02-02T22:28:37.081Z,8.80
2023-02-02T22:36:02.922Z,8.80
2023-02-02T22:38:30.709Z,8.80
2023-02-02T22:40:58.694Z,8.80
2023-02-02T22:43:26.503Z,8.80
2023-02-02T22:45:54.306Z,8.70
2023-02-02T22:48:23.450Z,8.60
2023-02-02T22:50:51.234Z,8.70
2023-02-02T22:53:18.962Z,8.60
2023-02-02T22:55:46.786Z,8.60
2023-02-02T22:58:14.748Z,8.70
2023-02-02T23:00:42.533Z,8.60
2023-02-02T23:03:10.458Z,8.60
2023-02-02T23:05:39.584Z,8.60
2023-02-02T23:08:07.334Z,8.60
2023-02-02T23:10:35.836Z,8.60
2023-02-02T23:13:04.947Z,8.60
2023-02-02T23:15:32.918Z,8.70
2023-02-02T23:18:00.844Z,8.70
2023-02-02T23:20:29.019Z,8.60
2023-02-02T23:22:58.317Z,8.60
2023-02-02T23:25:26.078Z,8.60
2023-02-02T23:27:53.971Z,8.50
2023-02-02T23:30:24.132Z,8.60
2023-02-02T23:32:52.899Z,8.60
2023-02-02T23:35:20.749Z,8.60
2023-02-02T23:37:48.556Z,8.70
2023-02-02T23:40:17.821Z,8.60
2023-02-02T23:42:45.563Z,8.60
2023-02-02T23:45:16.152Z,8.60
2023-02-02T23:47:44.312Z,8.60
2023-02-02T23:50:12.889Z,8.60
2023-02-02T23:52:40.994Z,8.60
2023-02-02T23:55:10.166Z,8.70
2023-02-02T23:57:39.628Z,8.60
